createdAt,value
2023-04-07T00:00:37.658Z,41.23
2023-04-07T00:01:37.674Z,39.60
2023-04-07T00:02:37.709Z,39.74
2023-04-07T00:03:37.726Z,39.06
2023-04-07T00:04:37.737Z,38.50
2023-04-07T00:05:37.680Z,38.64
2023-04-07T00:06:37.643Z,38.60
2023-04-07T00:07:48.504Z,39.87
2023-04-07T00:08:38.702Z,40.05
2023-04-07T00:09:37.657Z,40.22
2023-04-07T00:10:37.689Z,39.53
2023-04-07T00:11:37.683Z,39.58
2023-04-07T00:12:37.630Z,39.18
2023-04-07T00:13:37.626Z,39.17
2023-04-07T00:14:37.630Z,39.06
2023-04-07T00:15:37.596Z,39.85
2023-04-07T00:16:37.581Z,39.38
2023-04-07T00:17:37.594Z,38.34
2023-04-07T00:18:37.566Z,38.97
2023-04-07T00:19:37.522Z,38.17
2023-04-07T00:20:37.563Z,38.23
2023-04-07T00:21:37.534Z,38.28
2023-04-07T00:22:37.484Z,37.77
2023-04-07T00:23:37.504Z,37.51
2023-04-07T00:24:37.447Z,39.83
2023-04-07T00:25:37.470Z,38.61
2023-04-07T00:26:37.429Z,38.26
2023-04-07T00:27:37.431Z,37.31
2023-04-07T00:28:37.375Z,37.42
2023-04-07T00:29:37.351Z,38.76
2023-04-07T00:30:37.357Z,37.57
2023-04-07T00:31:37.379Z,38.26
2023-04-07T00:32:37.350Z,38.42
2023-04-07T00:33:37.355Z,38.19
2023-04-07T00:34:37.359Z,37.19
2023-04-07T00:35:37.436Z,37.38
2023-04-07T00:36:37.367Z,37.86
2023-04-07T00:37:37.373Z,36.44
2023-04-07T00:38:37.359Z,38.25
2023-04-07T00:39:37.333Z,38.54
2023-04-07T00:40:37.375Z,38.57
2023-04-07T00:41:37.338Z,38.00
2023-04-07T00:42:37.342Z,37.48
2023-04-07T00:43:37.356Z,37.82
2023-04-07T00:44:37.328Z,37.22
2023-04-07T00:45:37.346Z,37.11
2023-04-07T00:46:37.378Z,37.46
2023-04-07T00:47:37.382Z,37.10
2023-04-07T00:48:37.357Z,37.37
2023-04-07T00:49:37.338Z,37.24
2023-04-07T00:50:37.365Z,37.83
2023-04-07T00:51:37.377Z,37.79
2023-04-07T00:52:37.380Z,37.13
2023-04-07T00:53:37.394Z,38.90
2023-04-07T00:54:37.357Z,37.13
2023-04-07T00:55:37.407Z,37.54
2023-04-07T00:56:37.403Z,37.97
2023-04-07T00:57:37.406Z,37.23
2023-04-07T00:58:37.445Z,38.02
2023-04-07T00:59:37.404Z,38.06
2023-04-07T01:00:37.437Z,37.68
2023-04-07T01:01:37.535Z,37.17
2023-04-07T01:02:37.609Z,39.19
2023-04-07T01:03:37.839Z,38.70
2023-04-07T01:04:37.611Z,39.30
2023-04-07T01:05:37.542Z,35.87
2023-04-07T01:06:37.490Z,38.38
2023-04-07T01:07:37.489Z,37.18
2023-04-07T01:08:37.493Z,37.48
2023-04-07T01:09:37.505Z,38.24
2023-04-07T01:10:37.487Z,37.42
2023-04-07T01:11:37.527Z,36.41
2023-04-07T01:12:37.499Z,37.64
2023-04-07T01:13:37.542Z,36.51
2023-04-07T01:14:37.537Z,36.08
2023-04-07T01:15:37.535Z,37.14
2023-04-07T01:16:37.657Z,37.02
2023-04-07T01:17:37.587Z,37.67
2023-04-07T01:18:37.556Z,37.36
2023-04-07T01:19:37.570Z,36.85
2023-04-07T01:20:37.567Z,37.22
2023-04-07T01:21:37.566Z,38.35
2023-04-07T01:22:37.571Z,37.08
2023-04-07T01:23:37.554Z,37.17
2023-04-07T01:24:37.585Z,36.28
2023-04-07T01:25:37.629Z,37.07
2023-04-07T01:26:37.605Z,36.55
2023-04-07T01:27:37.585Z,36.78
2023-04-07T01:28:37.593Z,37.76
2023-04-07T01:29:37.619Z,35.60
2023-04-07T01:30:37.605Z,37.40
2023-04-07T01:31:37.642Z,37.14
2023-04-07T01:32:37.639Z,35.87
2023-04-07T01:33:37.841Z,37.47
2023-04-07T01:34:37.656Z,36.24
2023-04-07T01:35:37.631Z,36.49
2023-04-07T01:36:37.726Z,37.57
2023-04-07T01:37:37.682Z,36.95
2023-04-07T01:38:37.683Z,37.42
2023-04-07T01:39:37.688Z,36.13
2023-04-07T01:40:37.672Z,35.46
2023-04-07T01:41:37.724Z,37.08
2023-04-07T01:42:37.770Z,37.63
2023-04-07T01:43:37.744Z,37.04
2023-04-07T01:44:37.741Z,35.99
2023-04-07T01:45:37.797Z,35.86
2023-04-07T01:46:37.830Z,37.35
2023-04-07T01:47:37.915Z,35.63
2023-04-07T01:48:37.770Z,35.96
2023-04-07T01:49:37.789Z,36.65
2023-04-07T01:50:37.815Z,36.92
2023-04-07T01:51:37.828Z,37.38
2023-04-07T01:52:37.825Z,36.85
2023-04-07T01:53:37.818Z,37.15
2023-04-07T01:54:37.834Z,36.48
2023-04-07T01:55:37.859Z,36.37
2023-04-07T01:56:37.859Z,36.27
2023-04-07T01:57:37.881Z,36.23
2023-04-07T01:58:37.857Z,35.88
2023-04-07T01:59:37.918Z,36.19
2023-04-07T02:00:37.914Z,37.45
2023-04-07T02:01:38.082Z,36.47
2023-04-07T02:02:38.063Z,37.37
2023-04-07T02:03:38.031Z,38.04
2023-04-07T02:04:37.945Z,37.24
2023-04-07T02:05:37.950Z,36.23
2023-04-07T02:06:37.931Z,36.88
2023-04-07T02:07:37.940Z,37.81
2023-04-07T02:08:37.948Z,36.25
2023-04-07T02:09:37.952Z,36.82
2023-04-07T02:10:37.984Z,36.92
2023-04-07T02:11:37.990Z,37.19
2023-04-07T02:12:37.985Z,37.00
2023-04-07T02:13:37.966Z,37.24
2023-04-07T02:14:38.001Z,37.33
2023-04-07T02:15:38.019Z,36.47
2023-04-07T02:16:38.046Z,35.90
2023-04-07T02:17:38.053Z,35.43
2023-04-07T02:18:38.031Z,37.66
2023-04-07T02:19:38.079Z,36.71
2023-04-07T02:20:38.081Z,35.96
2023-04-07T02:21:38.067Z,35.03
2023-04-07T02:22:38.075Z,35.07
2023-04-07T02:23:38.123Z,35.57
2023-04-07T02:24:38.141Z,37.06
2023-04-07T02:25:38.167Z,36.36
2023-04-07T02:26:38.150Z,36.67
2023-04-07T02:27:38.150Z,36.68
2023-04-07T02:28:38.157Z,35.86
2023-04-07T02:29:38.155Z,35.57
2023-04-07T02:30:38.185Z,37.33
2023-04-07T02:31:38.230Z,34.93
2023-04-07T02:32:38.194Z,36.33
2023-04-07T02:33:38.216Z,36.63
2023-04-07T02:34:38.204Z,37.05
2023-04-07T02:35:38.264Z,36.01
2023-04-07T02:36:38.279Z,35.95
2023-04-07T02:37:38.296Z,36.45
2023-04-07T02:38:38.244Z,35.43
2023-04-07T02:39:38.282Z,38.04
2023-04-07T02:40:38.293Z,34.07
2023-04-07T02:41:38.335Z,36.29
2023-04-07T02:42:38.277Z,36.74
2023-04-07T02:43:38.335Z,36.67
2023-04-07T02:44:38.337Z,36.94
2023-04-07T02:45:38.372Z,35.79
2023-04-07T02:46:38.342Z,38.09
2023-04-07T02:47:38.454Z,35.50
2023-04-07T02:48:38.377Z,37.13
2023-04-07T02:49:38.382Z,37.02
2023-04-07T02:50:38.412Z,37.27
2023-04-07T02:51:38.398Z,37.00
2023-04-07T02:52:38.450Z,37.27
2023-04-07T02:53:38.417Z,36.90
2023-04-07T02:54:38.449Z,36.42
2023-04-07T02:55:38.490Z,36.89
2023-04-07T02:56:38.514Z,35.69
2023-04-07T02:57:38.633Z,36.44
2023-04-07T02:58:38.526Z,37.02
2023-04-07T02:59:38.530Z,37.83
2023-04-07T03:00:38.531Z,37.65
2023-04-07T03:01:38.620Z,36.02
2023-04-07T03:02:38.728Z,34.98
2023-04-07T03:03:38.653Z,34.13
2023-04-07T03:04:38.603Z,34.79
2023-04-07T03:05:38.608Z,35.81
2023-04-07T03:06:38.605Z,36.30
2023-04-07T03:07:38.625Z,37.42
2023-04-07T03:08:38.631Z,35.75
2023-04-07T03:09:38.668Z,34.96
2023-04-07T03:10:38.668Z,34.64
2023-04-07T03:11:38.662Z,34.60
2023-04-07T03:12:38.680Z,35.35
2023-04-07T03:13:38.693Z,34.30
2023-04-07T03:14:38.690Z,35.47
2023-04-07T03:15:38.741Z,35.11
2023-04-07T03:16:38.792Z,36.53
2023-04-07T03:17:38.802Z,35.89
2023-04-07T03:18:38.765Z,35.59
2023-04-07T03:19:38.852Z,36.12
2023-04-07T03:20:38.813Z,34.30
2023-04-07T03:21:38.814Z,35.28
2023-04-07T03:22:38.848Z,34.58
2023-04-07T03:23:38.921Z,35.29
2023-04-07T03:24:38.922Z,34.54
2023-04-07T03:25:38.888Z,34.63
2023-04-07T03:26:38.926Z,34.78
2023-04-07T03:27:38.938Z,35.67
2023-04-07T03:28:38.951Z,36.61
2023-04-07T03:29:38.971Z,35.80
2023-04-07T03:30:39.062Z,36.31
2023-04-07T03:31:38.990Z,34.98
2023-04-07T03:32:39.079Z,36.25
2023-04-07T03:33:39.025Z,34.30
2023-04-07T03:34:39.115Z,36.20
2023-04-07T03:35:39.099Z,35.75
2023-04-07T03:36:39.108Z,34.74
2023-04-07T03:37:39.944Z,34.76
2023-04-07T03:38:39.120Z,35.69
2023-04-07T03:39:39.188Z,35.63
2023-04-07T03:40:39.188Z,35.45
2023-04-07T03:41:39.225Z,35.49
2023-04-07T03:42:39.258Z,36.37
2023-04-07T03:43:39.244Z,34.64
2023-04-07T03:44:39.238Z,36.54
2023-04-07T03:45:39.249Z,35.44
2023-04-07T03:46:39.332Z,36.00
2023-04-07T03:47:39.317Z,36.97
2023-04-07T03:48:39.300Z,35.12
2023-04-07T03:49:39.346Z,34.66
2023-04-07T03:50:39.353Z,34.83
2023-04-07T03:51:39.369Z,34.97
2023-04-07T03:52:39.364Z,34.02
2023-04-07T03:53:39.374Z,36.18
2023-04-07T03:54:39.410Z,35.99
2023-04-07T03:55:39.419Z,33.51
2023-04-07T03:56:39.444Z,34.58
2023-04-07T03:57:39.496Z,36.55
2023-04-07T03:58:39.551Z,34.35
2023-04-07T03:59:39.483Z,34.32
2023-04-07T04:00:39.508Z,35.22
2023-04-07T04:01:39.562Z,35.46
2023-04-07T04:02:39.581Z,34.70
2023-04-07T04:03:39.683Z,34.40
2023-04-07T04:04:39.606Z,32.43
2023-04-07T04:05:39.571Z,34.35
2023-04-07T04:06:39.598Z,34.77
2023-04-07T04:07:39.599Z,35.04
2023-04-07T04:08:39.669Z,34.72
2023-04-07T04:09:39.663Z,34.25
2023-04-07T04:10:39.680Z,34.00
2023-04-07T04:11:39.691Z,35.75
2023-04-07T04:12:39.725Z,34.76
2023-04-07T04:13:39.748Z,34.07
2023-04-07T04:14:39.756Z,36.97
2023-04-07T04:15:39.821Z,33.94
2023-04-07T04:16:39.795Z,34.03
2023-04-07T04:17:39.845Z,34.48
2023-04-07T04:18:39.814Z,33.42
2023-04-07T04:19:39.818Z,32.76
2023-04-07T04:20:39.904Z,32.96
2023-04-07T04:21:39.886Z,35.32
2023-04-07T04:22:39.895Z,33.99
2023-04-07T04:23:39.915Z,34.26
2023-04-07T04:24:39.940Z,35.88
2023-04-07T04:25:39.939Z,33.66
2023-04-07T04:26:40.001Z,34.17
2023-04-07T04:27:40.000Z,33.95
2023-04-07T04:28:40.019Z,34.71
2023-04-07T04:29:40.062Z,34.41
2023-04-07T04:30:40.062Z,34.05
2023-04-07T04:31:40.077Z,34.42
2023-04-07T04:32:40.183Z,33.62
2023-04-07T04:33:40.120Z,35.80
2023-04-07T04:34:40.128Z,35.01
2023-04-07T04:35:40.174Z,34.54
2023-04-07T04:36:40.219Z,35.78
2023-04-07T04:37:40.222Z,34.59
2023-04-07T04:38:40.218Z,32.88
2023-04-07T04:39:40.261Z,34.45
2023-04-07T04:40:40.302Z,35.81
2023-04-07T04:41:40.294Z,34.45
2023-04-07T04:42:40.300Z,34.00
2023-04-07T04:43:40.447Z,33.54
2023-04-07T04:44:40.383Z,33.75
2023-04-07T04:45:40.393Z,32.92
2023-04-07T04:46:40.408Z,34.17
2023-04-07T04:47:40.449Z,33.08
2023-04-07T04:48:40.456Z,34.42
2023-04-07T04:49:40.463Z,35.88
2023-04-07T04:50:40.519Z,33.93
2023-04-07T04:51:40.493Z,34.47
2023-04-07T04:52:40.522Z,35.17
2023-04-07T04:53:40.550Z,36.12
2023-04-07T04:54:40.585Z,34.43
2023-04-07T04:55:40.587Z,35.57
2023-04-07T04:56:40.603Z,34.91
2023-04-07T04:57:40.623Z,34.76
2023-04-07T04:58:40.667Z,35.93
2023-04-07T04:59:40.681Z,35.52
2023-04-07T05:00:40.689Z,35.76
2023-04-07T05:01:40.820Z,36.01
2023-04-07T05:02:40.917Z,34.53
2023-04-07T05:03:40.926Z,35.64
2023-04-07T05:04:40.792Z,34.02
2023-04-07T05:05:40.780Z,35.12
2023-04-07T05:06:40.770Z,36.01
2023-04-07T05:07:40.793Z,35.24
2023-04-07T05:08:40.808Z,34.64
2023-04-07T05:09:40.852Z,33.39
2023-04-07T05:10:40.884Z,36.48
2023-04-07T05:11:40.865Z,36.06
2023-04-07T05:12:40.901Z,36.74
2023-04-07T05:13:40.918Z,35.39
2023-04-07T05:14:40.919Z,36.71
2023-04-07T05:15:41.001Z,36.32
2023-04-07T05:16:41.137Z,35.84
2023-04-07T05:17:41.010Z,36.04
2023-04-07T05:18:41.012Z,36.17
2023-04-07T05:19:41.058Z,36.53
2023-04-07T05:20:41.080Z,37.07
2023-04-07T05:21:41.091Z,35.31
2023-04-07T05:22:41.075Z,36.89
2023-04-07T05:23:41.140Z,35.66
2023-04-07T05:24:41.137Z,37.89
2023-04-07T05:25:41.171Z,36.18
2023-04-07T05:26:41.181Z,36.49
2023-04-07T05:27:41.183Z,35.05
2023-04-07T05:28:41.238Z,35.76
2023-04-07T05:29:41.243Z,35.51
2023-04-07T05:30:41.282Z,35.59
2023-04-07T05:31:41.349Z,36.19
2023-04-07T05:32:41.319Z,37.52
2023-04-07T05:33:41.321Z,38.49
2023-04-07T05:34:41.330Z,37.62
2023-04-07T05:35:41.343Z,36.52
2023-04-07T05:36:41.399Z,34.71
2023-04-07T05:37:41.406Z,34.18
2023-04-07T05:38:41.445Z,35.46
2023-04-07T05:39:41.449Z,36.65
2023-04-07T05:40:41.489Z,36.32
2023-04-07T05:41:41.496Z,35.46
2023-04-07T05:42:41.497Z,35.13
2023-04-07T05:43:41.506Z,34.78
2023-04-07T05:44:41.496Z,34.95
2023-04-07T05:45:41.563Z,34.36
2023-04-07T05:46:41.534Z,37.41
2023-04-07T05:47:41.613Z,35.06
2023-04-07T05:48:41.575Z,34.66
2023-04-07T05:49:41.595Z,33.93
2023-04-07T05:50:41.630Z,35.25
2023-04-07T05:51:41.634Z,34.39
2023-04-07T05:52:41.672Z,34.78
2023-04-07T05:53:41.652Z,34.71
2023-04-07T05:54:41.702Z,34.64
2023-04-07T05:55:41.719Z,34.35
2023-04-07T05:56:41.719Z,35.45
2023-04-07T05:57:41.721Z,35.17
2023-04-07T05:58:41.748Z,35.76
2023-04-07T05:59:41.779Z,34.44
2023-04-07T06:00:41.793Z,35.31
2023-04-07T06:01:41.891Z,34.70
2023-04-07T06:02:41.943Z,33.72
2023-04-07T06:03:41.891Z,35.26
2023-04-07T06:04:41.879Z,34.13
2023-04-07T06:05:41.874Z,34.59
2023-04-07T06:06:41.865Z,37.51
2023-04-07T06:07:41.901Z,35.46
2023-04-07T06:08:41.893Z,33.68
2023-04-07T06:09:41.915Z,35.95
2023-04-07T06:10:41.947Z,35.19
2023-04-07T06:11:41.958Z,34.28
2023-04-07T06:12:41.976Z,33.79
2023-04-07T06:13:42.013Z,35.24
2023-04-07T06:14:42.025Z,34.84
2023-04-07T06:15:42.027Z,34.76
2023-04-07T06:16:42.070Z,36.03
2023-04-07T06:17:42.123Z,34.64
2023-04-07T06:18:42.070Z,36.40
2023-04-07T06:19:42.101Z,37.93
2023-04-07T06:20:42.107Z,36.21
2023-04-07T06:21:42.109Z,34.95
2023-04-07T06:22:42.117Z,34.29
2023-04-07T06:23:42.145Z,34.33
2023-04-07T06:24:42.153Z,35.12
2023-04-07T06:25:42.166Z,34.68
2023-04-07T06:26:42.173Z,36.52
2023-04-07T06:27:42.189Z,34.67
2023-04-07T06:28:42.206Z,34.40
2023-04-07T06:29:42.224Z,33.80
2023-04-07T06:30:42.309Z,33.91
2023-04-07T06:31:42.236Z,35.82
2023-04-07T06:32:42.312Z,34.42
2023-04-07T06:33:42.262Z,35.06
2023-04-07T06:34:42.267Z,34.73
2023-04-07T06:35:42.301Z,34.87
2023-04-07T06:36:42.322Z,34.65
2023-04-07T06:37:42.309Z,35.06
2023-04-07T06:38:42.330Z,35.12
2023-04-07T06:39:42.366Z,35.37
2023-04-07T06:40:42.368Z,35.92
2023-04-07T06:41:42.369Z,35.09
2023-04-07T06:42:42.406Z,35.32
2023-04-07T06:43:42.430Z,36.49
2023-04-07T06:44:42.460Z,35.66
2023-04-07T06:45:42.488Z,34.89
2023-04-07T06:46:42.590Z,35.41
2023-04-07T06:47:42.590Z,35.71
2023-04-07T06:48:42.539Z,35.94
2023-04-07T06:49:42.549Z,35.96
2023-04-07T06:50:42.538Z,35.46
2023-04-07T06:51:42.592Z,33.34
2023-04-07T06:52:42.581Z,34.66
2023-04-07T06:53:42.583Z,34.75
2023-04-07T06:54:42.597Z,36.21
2023-04-07T06:55:42.597Z,36.33
2023-04-07T06:56:42.657Z,34.64
2023-04-07T06:57:42.674Z,36.25
2023-04-07T06:58:42.680Z,34.29
2023-04-07T06:59:42.692Z,35.52
2023-04-07T07:00:42.687Z,35.39
2023-04-07T07:01:42.829Z,35.43
2023-04-07T07:02:42.813Z,34.47
2023-04-07T07:03:42.832Z,36.35
2023-04-07T07:04:42.769Z,35.52
2023-04-07T07:05:42.783Z,36.08
2023-04-07T07:06:42.779Z,35.93
2023-04-07T07:07:42.794Z,35.49
2023-04-07T07:08:42.799Z,35.60
2023-04-07T07:09:42.829Z,35.35
2023-04-07T07:10:42.824Z,35.74
2023-04-07T07:11:42.839Z,35.60
2023-04-07T07:12:42.847Z,35.29
2023-04-07T07:13:42.879Z,35.85
2023-04-07T07:14:42.884Z,35.56
2023-04-07T07:15:42.882Z,35.62
2023-04-07T07:16:42.902Z,36.13
2023-04-07T07:17:42.965Z,35.40
2023-04-07T07:18:42.905Z,35.73
2023-04-07T07:19:42.940Z,36.50
2023-04-07T07:20:42.937Z,36.48
2023-04-07T07:21:42.951Z,35.58
2023-04-07T07:22:42.974Z,36.61
2023-04-07T07:23:42.950Z,35.78
2023-04-07T07:24:42.968Z,35.59
2023-04-07T07:25:42.966Z,37.19
2023-04-07T07:26:44.507Z,36.77
2023-04-07T07:27:42.991Z,36.32
2023-04-07T07:28:42.982Z,36.52
2023-04-07T07:29:43.012Z,36.98
2023-04-07T07:30:43.038Z,36.96
2023-04-07T07:31:42.986Z,36.81
2023-04-07T07:32:43.084Z,36.61
2023-04-07T07:33:43.005Z,37.58
2023-04-07T07:34:42.984Z,37.26
2023-04-07T07:35:43.028Z,35.48
2023-04-07T07:36:42.999Z,36.93
2023-04-07T07:37:43.007Z,37.12
2023-04-07T07:38:42.994Z,38.28
2023-04-07T07:39:43.091Z,38.50
2023-04-07T07:40:43.018Z,37.11
2023-04-07T07:41:43.037Z,37.26
2023-04-07T07:42:43.008Z,36.86
2023-04-07T07:43:43.050Z,36.76
2023-04-07T07:44:43.048Z,37.06
2023-04-07T07:45:43.007Z,37.09
2023-04-07T07:46:43.129Z,36.71
2023-04-07T07:47:43.047Z,37.21
2023-04-07T07:48:43.056Z,36.64
2023-04-07T07:49:43.036Z,37.57
2023-04-07T07:50:43.023Z,36.87
2023-04-07T07:51:43.033Z,37.82
2023-04-07T07:52:43.059Z,37.38
2023-04-07T07:53:43.061Z,37.02
2023-04-07T07:54:43.052Z,35.90
2023-04-07T07:55:43.064Z,38.45
2023-04-07T07:56:43.072Z,38.65
2023-04-07T07:57:43.068Z,37.14
2023-04-07T07:58:43.084Z,37.66
2023-04-07T07:59:43.062Z,36.58
2023-04-07T08:00:43.074Z,37.32
2023-04-07T08:01:43.083Z,36.95
2023-04-07T08:02:43.180Z,38.80
2023-04-07T08:03:43.199Z,37.67
2023-04-07T08:04:43.115Z,38.63
2023-04-07T08:05:43.054Z,38.78
2023-04-07T08:06:43.066Z,38.14
2023-04-07T08:07:43.068Z,38.39
2023-04-07T08:08:43.052Z,38.57
2023-04-07T08:09:43.069Z,38.76
2023-04-07T08:10:43.088Z,39.00
2023-04-07T08:11:43.099Z,37.62
2023-04-07T08:12:43.102Z,38.69
2023-04-07T08:13:43.106Z,39.04
2023-04-07T08:14:43.111Z,39.57
2023-04-07T08:15:43.122Z,38.92
2023-04-07T08:16:43.132Z,39.37
2023-04-07T08:17:43.110Z,38.84
2023-04-07T08:18:43.093Z,38.30
2023-04-07T08:19:43.092Z,37.63
2023-04-07T08:20:43.079Z,38.01
2023-04-07T08:21:43.082Z,38.41
2023-04-07T08:22:43.063Z,38.46
2023-04-07T08:23:43.120Z,38.92
2023-04-07T08:24:43.102Z,38.95
2023-04-07T08:25:43.096Z,38.87
2023-04-07T08:26:43.049Z,38.07
2023-04-07T08:27:43.088Z,39.82
2023-04-07T08:28:43.074Z,38.98
2023-04-07T08:29:43.086Z,39.07
2023-04-07T08:30:43.069Z,37.87
2023-04-07T08:31:43.124Z,39.91
2023-04-07T08:32:43.111Z,39.85
2023-04-07T08:33:43.034Z,39.20
2023-04-07T08:34:43.041Z,38.45
2023-04-07T08:35:43.090Z,40.58
2023-04-07T08:36:44.035Z,40.16
2023-04-07T08:37:43.058Z,39.16
2023-04-07T08:38:43.035Z,39.90
2023-04-07T08:39:43.108Z,41.18
2023-04-07T08:40:43.192Z,40.62
2023-04-07T08:41:43.207Z,39.95
2023-04-07T08:42:43.287Z,39.66
2023-04-07T08:43:43.335Z,39.69
2023-04-07T08:44:43.366Z,40.52
2023-04-07T08:45:43.453Z,40.45
2023-04-07T08:46:43.547Z,40.24
2023-04-07T08:47:43.566Z,40.64
2023-04-07T08:48:43.616Z,39.68
2023-04-07T08:49:43.705Z,41.86
2023-04-07T08:50:43.748Z,41.26
2023-04-07T08:51:43.800Z,40.36
2023-04-07T08:52:43.853Z,39.73
2023-04-07T08:53:43.903Z,41.08
2023-04-07T08:54:43.927Z,40.71
2023-04-07T08:55:43.991Z,40.85
2023-04-07T08:56:44.065Z,41.02
2023-04-07T08:57:44.153Z,40.48
2023-04-07T08:58:44.166Z,42.80
2023-04-07T08:59:44.242Z,42.31
2023-04-07T09:00:44.308Z,40.61
2023-04-07T09:01:44.483Z,41.38
2023-04-07T09:02:44.554Z,42.28
2023-04-07T09:03:44.636Z,42.96
2023-04-07T09:04:44.562Z,41.73
2023-04-07T09:05:44.607Z,40.45
2023-04-07T09:06:44.669Z,39.44
2023-04-07T09:07:44.758Z,39.80
2023-04-07T09:08:44.816Z,38.55
2023-04-07T09:09:44.920Z,39.40
2023-04-07T09:10:44.952Z,38.86
2023-04-07T09:11:45.010Z,40.30
2023-04-07T09:12:45.137Z,39.95
2023-04-07T09:13:45.228Z,39.66
2023-04-07T09:14:45.215Z,38.33
2023-04-07T09:15:45.290Z,40.22
2023-04-07T09:16:45.392Z,38.18
2023-04-07T09:17:45.473Z,37.11
2023-04-07T09:18:45.448Z,36.59
2023-04-07T09:19:45.576Z,39.66
2023-04-07T09:20:45.583Z,39.45
2023-04-07T09:21:45.641Z,38.12
2023-04-07T09:22:45.819Z,39.94
2023-04-07T09:23:45.769Z,36.70
2023-04-07T09:24:45.819Z,39.61
2023-04-07T09:25:45.904Z,40.61
2023-04-07T09:26:45.989Z,35.48
2023-04-07T09:27:46.034Z,38.37
2023-04-07T09:28:46.115Z,39.15
2023-04-07T09:29:46.132Z,39.36
2023-04-07T09:30:46.268Z,36.03
2023-04-07T09:31:46.275Z,37.66
2023-04-07T09:32:46.417Z,39.99
2023-04-07T09:33:46.709Z,36.47
2023-04-07T09:34:46.470Z,37.68
2023-04-07T09:35:46.588Z,35.74
2023-04-07T09:36:46.543Z,36.28
2023-04-07T09:37:46.628Z,31.85
2023-04-07T09:38:46.691Z,35.90
2023-04-07T09:39:46.741Z,38.63
2023-04-07T09:40:46.776Z,31.90
2023-04-07T09:41:46.877Z,35.82
2023-04-07T09:42:46.931Z,36.95
2023-04-07T09:43:47.169Z,32.98
2023-04-07T09:44:47.043Z,37.63
2023-04-07T09:45:47.103Z,32.05
2023-04-07T09:46:47.090Z,34.96
2023-04-07T09:47:47.223Z,35.43
2023-04-07T09:48:47.207Z,35.62
2023-04-07T09:49:47.251Z,35.86
2023-04-07T09:50:47.339Z,35.00
2023-04-07T09:51:47.368Z,32.13
2023-04-07T09:52:47.417Z,33.95
2023-04-07T09:53:47.788Z,32.02
2023-04-07T09:54:47.531Z,31.82
2023-04-07T09:55:47.634Z,27.77
2023-04-07T09:56:48.639Z,29.42
2023-04-07T09:57:47.684Z,30.54
2023-04-07T09:58:47.753Z,29.69
2023-04-07T09:59:47.796Z,34.47
2023-04-07T10:00:47.892Z,29.06
2023-04-07T10:01:48.039Z,30.45
2023-04-07T10:02:48.115Z,27.14
2023-04-07T10:03:48.523Z,32.71
2023-04-07T10:04:48.052Z,32.35
2023-04-07T10:05:48.120Z,31.98
2023-04-07T10:06:48.150Z,33.00
2023-04-07T10:07:48.204Z,30.93
2023-04-07T10:08:48.378Z,34.06
2023-04-07T10:09:48.326Z,32.63
2023-04-07T10:10:48.361Z,30.62
2023-04-07T10:11:48.440Z,32.91
2023-04-07T10:12:48.469Z,31.95
2023-04-07T10:13:48.658Z,30.14
2023-04-07T10:14:48.533Z,29.45
2023-04-07T10:15:48.575Z,30.86
2023-04-07T10:16:48.657Z,29.18
2023-04-07T10:17:48.770Z,33.18
2023-04-07T10:18:48.696Z,30.34
2023-04-07T10:19:48.766Z,29.58
2023-04-07T10:20:48.804Z,32.26
2023-04-07T10:21:48.839Z,32.86
2023-04-07T10:22:48.886Z,31.04
2023-04-07T10:23:49.315Z,31.97
2023-04-07T10:24:48.956Z,35.52
2023-04-07T10:25:49.064Z,35.10
2023-04-07T10:26:49.100Z,31.02
2023-04-07T10:27:49.142Z,32.43
2023-04-07T10:28:49.169Z,31.38
2023-04-07T10:29:49.199Z,32.90
2023-04-07T10:30:49.290Z,32.41
2023-04-07T10:31:49.318Z,30.47
2023-04-07T10:32:49.416Z,32.30
2023-04-07T10:33:49.563Z,31.98
2023-04-07T10:34:49.427Z,31.45
2023-04-07T10:35:49.478Z,31.47
2023-04-07T10:36:49.495Z,32.70
2023-04-07T10:37:49.696Z,29.33
2023-04-07T10:38:49.586Z,32.24
2023-04-07T10:39:49.631Z,28.89
2023-04-07T10:40:49.630Z,30.05
2023-04-07T10:41:49.676Z,31.65
2023-04-07T10:42:49.731Z,32.10
2023-04-07T10:43:49.985Z,32.98
2023-04-07T10:44:49.853Z,33.02
2023-04-07T10:45:49.903Z,32.74
2023-04-07T10:46:49.862Z,32.93
2023-04-07T10:47:49.954Z,31.80
2023-04-07T10:48:49.942Z,31.45
2023-04-07T10:49:49.971Z,29.84
2023-04-07T10:50:50.056Z,32.90
2023-04-07T10:51:50.025Z,30.76
2023-04-07T10:52:50.081Z,31.42
2023-04-07T10:53:50.257Z,29.28
2023-04-07T10:54:51.095Z,29.86
2023-04-07T10:55:50.172Z,31.44
2023-04-07T10:56:50.220Z,31.14
2023-04-07T10:57:50.227Z,29.60
2023-04-07T10:58:50.266Z,32.52
2023-04-07T10:59:50.313Z,34.48
2023-04-07T11:00:50.368Z,33.34
2023-04-07T11:01:50.450Z,32.57
2023-04-07T11:02:50.637Z,28.80
2023-04-07T11:03:50.731Z,29.81
2023-04-07T11:04:50.537Z,29.01
2023-04-07T11:05:50.533Z,29.07
2023-04-07T11:06:50.587Z,32.00
2023-04-07T11:07:50.621Z,33.54
2023-04-07T11:08:50.622Z,30.52
2023-04-07T11:09:50.666Z,29.53
2023-04-07T11:10:50.722Z,31.86
2023-04-07T11:11:50.729Z,28.62
2023-04-07T11:12:50.765Z,29.61
2023-04-07T11:13:51.081Z,30.32
2023-04-07T11:14:50.818Z,32.08
2023-04-07T11:15:50.855Z,27.07
2023-04-07T11:16:50.876Z,32.80
2023-04-07T11:17:50.919Z,29.39
2023-04-07T11:18:50.971Z,28.42
2023-04-07T11:19:50.931Z,30.51
2023-04-07T11:20:50.988Z,33.45
2023-04-07T11:21:50.993Z,33.03
2023-04-07T11:22:51.039Z,29.64
2023-04-07T11:23:51.202Z,30.62
2023-04-07T11:24:51.107Z,28.08
2023-04-07T11:25:51.122Z,28.28
2023-04-07T11:26:51.178Z,32.11
2023-04-07T11:27:51.147Z,31.37
2023-04-07T11:28:51.182Z,30.64
2023-04-07T11:29:51.207Z,26.79
2023-04-07T11:30:51.280Z,28.44
2023-04-07T11:31:51.429Z,31.76
2023-04-07T11:32:51.286Z,29.58
2023-04-07T11:33:51.297Z,31.93
2023-04-07T11:34:51.347Z,31.36
2023-04-07T11:35:51.477Z,28.82
2023-04-07T11:36:51.373Z,32.78
2023-04-07T11:37:51.425Z,29.84
2023-04-07T11:38:51.467Z,29.32
2023-04-07T11:39:51.470Z,29.98
2023-04-07T11:40:51.539Z,30.26
2023-04-07T11:41:51.518Z,28.49
2023-04-07T11:42:51.552Z,30.01
2023-04-07T11:43:51.555Z,30.55
2023-04-07T11:44:51.569Z,28.56
2023-04-07T11:45:51.604Z,29.96
2023-04-07T11:46:51.714Z,30.25
2023-04-07T11:47:51.715Z,29.08
2023-04-07T11:48:51.699Z,31.80
2023-04-07T11:49:51.717Z,27.25
2023-04-07T11:50:51.752Z,27.66
2023-04-07T11:51:51.739Z,30.20
2023-04-07T11:52:51.780Z,28.48
2023-04-07T11:53:51.772Z,26.59
2023-04-07T11:54:51.808Z,30.82
2023-04-07T11:55:51.882Z,25.42
2023-04-07T11:56:51.860Z,25.05
2023-04-07T11:57:52.041Z,30.87
2023-04-07T11:58:51.917Z,28.48
2023-04-07T11:59:51.944Z,29.46
2023-04-07T12:00:51.966Z,29.99
2023-04-07T12:01:53.020Z,28.89
2023-04-07T12:02:52.186Z,29.56
2023-04-07T12:03:52.390Z,29.34
2023-04-07T12:04:52.123Z,29.66
2023-04-07T12:05:52.117Z,33.63
2023-04-07T12:06:52.084Z,29.76
2023-04-07T12:07:52.094Z,30.48
2023-04-07T12:08:52.156Z,28.47
2023-04-07T12:09:52.183Z,31.76
2023-04-07T12:10:52.200Z,33.27
2023-04-07T12:11:52.176Z,28.07
2023-04-07T12:12:52.233Z,31.44
2023-04-07T12:13:52.248Z,30.49
2023-04-07T12:14:52.296Z,28.35
2023-04-07T12:15:52.778Z,29.58
2023-04-07T12:16:52.327Z,30.05
2023-04-07T12:17:52.354Z,28.87
2023-04-07T12:18:52.305Z,28.62
2023-04-07T12:19:52.355Z,31.94
2023-04-07T12:20:52.354Z,27.34
2023-04-07T12:21:52.395Z,30.04
2023-04-07T12:22:52.349Z,29.30
2023-04-07T12:23:52.381Z,29.42
2023-04-07T12:24:52.395Z,31.05
2023-04-07T12:25:52.458Z,30.95
2023-04-07T12:26:52.451Z,30.08
2023-04-07T12:27:52.466Z,29.17
2023-04-07T12:28:52.445Z,29.31
2023-04-07T12:29:52.472Z,27.80
2023-04-07T12:30:52.492Z,30.09
2023-04-07T12:31:52.611Z,30.43
2023-04-07T12:32:52.639Z,28.43
2023-04-07T12:33:52.514Z,28.87
2023-04-07T12:34:52.547Z,25.47
2023-04-07T12:35:52.605Z,30.31
2023-04-07T12:36:52.567Z,29.54
2023-04-07T12:37:52.579Z,32.07
2023-04-07T12:38:52.591Z,31.88
2023-04-07T12:39:52.638Z,27.52
2023-04-07T12:40:52.629Z,28.78
2023-04-07T12:41:52.657Z,30.53
2023-04-07T12:42:52.677Z,29.22
2023-04-07T12:43:52.938Z,30.69
2023-04-07T12:44:52.690Z,29.84
2023-04-07T12:45:52.772Z,26.70
2023-04-07T12:46:52.728Z,32.18
2023-04-07T12:47:52.848Z,32.08
2023-04-07T12:48:52.777Z,31.14
2023-04-07T12:49:52.759Z,29.29
2023-04-07T12:50:52.782Z,29.80
2023-04-07T12:51:52.788Z,32.33
2023-04-07T12:52:52.805Z,30.26